Data for 05/17/2009

Time Sea-Level Adjusted Pressure Absolute Pressure Temperature Relative Humidity Dew Point   
(mb) (inHg) (mb) (inHg) (C) (F) (%) (C) (F)
00:05 1023 30.21 853 25.19 11.4 52.6 40 -1.8 28.8
00:10 1023 30.21 853 25.19 11.3 52.3 40 -1.8 28.7
00:15 1023 30.21 853 25.19 11.4 52.5 38 -2.4 27.6
00:20 1023 30.21 853 25.19 11.7 53.1 36 -2.6 27.2
00:25 1023 30.21 853 25.19 12 53.5 36 -2.5 27.6
00:30 1023 30.21 853 25.19 11.9 53.4 37 -2.1 28.2
00:35 1023 30.21 853 25.19 11.8 53.2 37 -2.4 27.7
00:40 1023 30.21 853 25.19 12 53.6 35 -2.8 27
00:45 1023 30.21 853 25.19 12.1 53.8 35 -2.7 27.2
00:50 1023 30.21 853 25.19 12 53.7 36 -2.5 27.5
00:55 1023 30.21 853 25.19 11.7 53 37 -2.3 27.8
01:00 1023 30.21 853 25.19 11.6 52.8 38 -2.2 28
01:05 1023 30.21 853 25.19 11.5 52.7 39 -2.1 28.3
01:10 1024 30.24 853 25.19 11.4 52.4 39 -2 28.3
01:15 1024 30.24 853 25.19 11.2 52.1 40 -1.9 28.5
01:20 1024 30.24 853 25.19 10.8 51.4 40 -2.1 28.2
01:25 1024 30.24 853 25.19 10.8 51.4 39 -2.6 27.4
01:30 1024 30.24 853 25.19 10.9 51.7 39 -2.5 27.5
01:35 1024 30.24 853 25.19 10.9 51.6 40 -2.1 28.1
01:40 1024 30.24 853 25.19 10.5 50.9 43 -1.5 29.4
01:45 1024 30.24 853 25.19 9.9 49.9 45 -1.5 29.3
01:50 1024 30.24 853 25.19 9.8 49.6 44 -1.8 28.8
01:55 1023 30.21 853 25.19 9.9 49.7 43 -2 28.5
02:00 1023 30.21 853 25.19 10 50 43 -2.1 28.2
02:05 1023 30.21 853 25.19 10 50 42 -2.4 27.7
02:10 1023 30.21 853 25.19 10.1 50.2 41 -2.6 27.3
02:15 1023 30.21 853 25.19 10.2 50.3 40 -2.7 27.2
02:20 1023 30.21 853 25.19 10.4 50.7 39 -2.9 26.8
02:25 1023 30.21 853 25.19 10.6 51.1 39 -2.9 26.8
02:30 1024 30.24 853 25.19 10.7 51.3 38 -3.1 26.3
02:35 1024 30.24 853 25.19 10.7 51.3 38 -3 26.7
02:40 1024 30.24 853 25.19 10.7 51.3 38 -3 26.6
02:45 1024 30.24 853 25.19 10.8 51.4 37 -3.1 26.4
02:50 1023 30.21 853 25.19 10.7 51.3 38 -3 26.6
02:55 1023 30.21 853 25.19 10.6 51.1 39 -2.9 26.8
03:00 1023 30.21 852 25.16 10.4 50.7 40 -2.6 27.3
03:05 1023 30.21 852 25.16 10.2 50.3 40 -2.7 27.2
03:10 1023 30.21 853 25.19 9.9 49.8 40 -2.9 26.7
03:15 1023 30.21 853 25.19 9.8 49.6 42 -2.4 27.8
03:20 1023 30.21 853 25.19 9.3 48.7 44 -2.3 27.8
03:25 1023 30.21 853 25.19 9.3 48.7 43 -2.7 27.2
03:30 1023 30.21 853 25.19 9.3 48.7 43 -2.7 27.2
03:35 1023 30.21 853 25.19 9.2 48.6 43 -2.6 27.3
03:40 1023 30.21 853 25.19 9.2 48.5 43 -2.7 27.2
03:45 1024 30.24 853 25.19 9.2 48.5 41 -3.2 26.2
03:50 1024 30.24 853 25.19 9.5 49.2 40 -3.3 26.1
03:55 1024 30.24 853 25.19 9.8 49.6 39 -3.5 25.7
04:00 1023 30.21 853 25.19 10 50.1 38 -3.7 25.4
04:05 1023 30.21 853 25.19 10.3 50.6 36 -4 24.7
04:10 1023 30.21 853 25.19 10.6 51.1 35 -4 24.8
04:15 1023 30.21 853 25.19 10.6 51.1 36 -3.8 25.1
04:20 1024 30.24 853 25.19 10.6 51 37 -3.6 25.5
04:25 1024 30.24 853 25.19 10.4 50.8 37 -3.6 25.5
04:30 1024 30.24 853 25.19 10.1 50.1 39 -3.2 26.3
04:35 1024 30.24 853 25.19 9.7 49.5 40 -3.1 26.4
04:40 1024 30.24 853 25.19 9.8 49.6 40 -3.2 26.3
04:45 1024 30.24 853 25.19 9.5 49.1 42 -2.9 26.8
04:50 1024 30.24 853 25.19 9.5 49 40 -3.3 26.1
04:55 1024 30.24 853 25.19 9.3 48.8 41 -3.3 26.1
05:00 1024 30.24 853 25.19 9.3 48.7 41 -3.2 26.3
05:05 1024 30.24 853 25.19 9.2 48.6 43 -2.7 27.2
05:10 1024 30.24 853 25.19 8.9 47.9 44 -2.7 27.2
05:15 1024 30.24 853 25.19 9 48.1 43 -2.9 26.8
05:20 1024 30.24 853 25.19 8.8 47.8 44 -2.7 27.1
05:25 1024 30.24 853 25.19 8.8 47.8 44 -2.8 26.9
05:30 1024 30.24 853 25.19 8.9 48.1 43 -2.9 26.9
05:35 1024 30.24 853 25.19 8.9 47.9 44 -2.6 27.3
05:40 1024 30.24 853 25.19 8.7 47.6 45 -2.6 27.3
05:45 1024 30.24 853 25.19 8.7 47.7 45 -2.7 27.2
05:50 1024 30.24 853 25.19 8.7 47.7 44 -2.8 27
05:55 1023 30.21 853 25.19 8.9 47.9 44 -2.7 27.2
06:00 1024 30.24 853 25.19 8.6 47.5 46 -2.2 28
06:05 1024 30.24 853 25.19 8.3 47 48 -1.9 28.6
06:10 1024 30.24 853 25.19 8.1 46.6 47 -2.6 27.3
06:15 1024 30.24 853 25.19 8.1 46.5 47 -2.5 27.4
06:20 1024 30.24 853 25.19 8.3 47 46 -2.5 27.5
06:25 1024 30.24 853 25.19 8.8 47.9 44 -2.8 26.9
06:30 1024 30.24 853 25.19 9.3 48.8 43 -2.5 27.5
06:35 1024 30.24 853 25.19 9.2 48.5 44 -2.4 27.7
06:40 1024 30.24 853 25.19 9.1 48.4 44 -2.6 27.3
06:45 1024 30.24 853 25.19 9.3 48.8 44 -2.4 27.7
06:50 1024 30.24 853 25.19 9.6 49.3 42 -2.5 27.5
06:55 1024 30.24 853 25.19 9.6 49.4 43 -2.2 28.1
07:00 1024 30.24 853 25.19 9.8 49.6 45 -1.6 29.1
07:05 1024 30.24 853 25.19 9.8 49.6 44 -1.8 28.8
07:10 1024 30.24 853 25.19 9.7 49.4 43 -2.3 27.9
07:15 1024 30.24 853 25.19 9.9 49.7 43 -2.1 28.3
07:20 1024 30.24 853 25.19 9.8 49.6 43 -2.1 28.2
07:25 1024 30.24 853 25.19 9.8 49.6 48 -0.7 30.7
07:30 1024 30.24 853 25.19 9.4 49 48 -0.9 30.4
07:35 1024 30.24 853 25.19 9.6 49.2 44 -1.9 28.6
07:40 1024 30.24 853 25.19 10.3 50.5 37 -3.6 25.5
07:45 1024 30.24 853 25.19 11.3 52.3 40 -1.9 28.5
07:50 1024 30.24 853 25.19 11.8 53.3 41 -1.1 30.1
07:55 1024 30.24 853 25.19 12.5 54.5 42 -0.1 31.8
08:00 1024 30.24 853 25.19 12.3 54.1 44 0.5 32.9
08:05 1024 30.24 853 25.19 13.1 55.5 40 -0.1 31.9
08:10 1024 30.24 853 25.19 13.8 56.8 39 0.2 32.4
08:15 1024 30.24 853 25.19 13.7 56.7 36 -1.1 30.1
08:20 1024 30.24 853 25.19 13.8 56.8 40 0.5 32.9
08:25 1024 30.24 853 25.19 13.7 56.6 37 -0.6 30.9
08:30 1024 30.24 853 25.19 14 57.2 34 -1.6 29.1
08:35 1024 30.24 853 25.19 14.3 57.7 32 -2.2 28
08:40 1024 30.24 853 25.19 14.5 58.2 31 -2.5 27.5
08:45 1024 30.24 853 25.19 15.2 59.4 30 -2.1 28.2
08:50 1024 30.24 853 25.19 16.1 61 29 -1.6 29.1
08:55 1024 30.24 853 25.19 16.8 62.2 29 -1.3 29.6
09:00 1024 30.24 853 25.19 16.9 62.3 29 -1.1 30.1
09:05 1024 30.24 853 25.19 17 62.6 29 -1.2 29.8
09:10 1024 30.24 853 25.19 17.4 63.2 29 -0.7 30.8
09:15 1024 30.24 853 25.19 17.1 62.7 30 -0.6 31
09:20 1024 30.24 853 25.19 17.7 63.9 29 -0.4 31.3
09:25 1024 30.24 853 25.19 17.7 63.8 31 0.4 32.7
09:30 1024 30.24 853 25.19 17.4 63.3 31 0.1 32.2
09:35 1024 30.24 853 25.19 18.1 64.6 30 0.5 33
09:40 1024 30.24 853 25.19 17.9 64.2 32 1 33.8
09:45 1024 30.24 853 25.19 18 64.5 30 0.4 32.8
09:50 1023 30.21 853 25.19 19.2 66.5 29 0.9 33.6
09:55 1023 30.21 853 25.19 19.9 67.8 29 1.7 35.1
10:00 1023 30.21 853 25.19 20 67.9 29 1.3 34.4
10:05 1023 30.21 852 25.16 20.9 69.5 23 -1.1 30.1
10:10 1023 30.21 852 25.16 21.4 70.6 21 -1.8 28.7
10:15 1023 30.21 852 25.16 21.9 71.4 21 -0.9 30.3
10:20 1023 30.21 852 25.16 22 71.6 23 -0.2 31.7
10:25 1023 30.21 852 25.16 22.2 71.9 21 -0.8 30.5
10:30 1023 30.21 852 25.16 21.1 70 23 -0.7 30.8
10:35 1023 30.21 852 25.16 21.7 71.1 22 -0.6 30.9
10:40 1023 30.21 852 25.16 21.7 71 22 -0.7 30.8
10:45 1023 30.21 852 25.16 22.3 72.1 21 -0.8 30.6
10:50 1023 30.21 852 25.16 22.7 72.9 21 -0.8 30.5
10:55 1023 30.21 852 25.16 22.4 72.2 20 -1.4 29.5
11:00 1023 30.21 852 25.16 21.9 71.3 22 -0.9 30.5
11:05 1023 30.21 852 25.16 23.1 73.6 20 -0.9 30.3
11:10 1023 30.21 852 25.16 22.9 73.3 20 -0.8 30.6
11:15 1023 30.21 852 25.16 22.4 72.4 20 -1.2 29.8
11:20 1023 30.21 852 25.16 22.4 72.4 21 -1 30.2
11:25 1023 30.21 852 25.16 22 71.6 21 -0.9 30.3
11:30 1023 30.21 852 25.16 21.5 70.7 23 -0.5 31.1
11:35 1023 30.21 852 25.16 22.2 71.9 22 -0.3 31.4
11:40 1023 30.21 852 25.16 21.6 70.9 23 -0.2 31.6
11:45 1023 30.21 852 25.16 22 71.7 22 -0.4 31.3
11:50 1023 30.21 852 25.16 22.9 73.2 21 -0.3 31.5
11:55 1023 30.21 852 25.16 23.7 74.6 21 -0 32
12:00 1022 30.18 852 25.16 23.4 74.1 21 -0.1 31.8
12:05 1022 30.18 852 25.16 23 73.4 21 -0.3 31.4
12:10 1022 30.18 852 25.16 23 73.3 21 -0.6 31
12:15 1022 30.18 852 25.16 23.7 74.6 20 -0.4 31.2
12:20 1022 30.18 852 25.16 24 75.1 19 -0.7 30.7
12:25 1022 30.18 852 25.16 23.8 74.8 19 -0.9 30.4
12:30 1022 30.18 852 25.16 23.3 73.9 19 -1.6 29.1
12:35 1022 30.18 852 25.16 23 73.3 20 -0.8 30.5
12:40 1022 30.18 852 25.16 23.1 73.5 19 -1.3 29.6
12:45 1022 30.18 852 25.16 23.7 74.7 20 -0.5 31.2
12:50 1022 30.18 852 25.16 24.2 75.6 19 -0.6 30.9
12:55 1022 30.18 851 25.13 24.9 76.8 17 -1.4 29.4
13:00 1022 30.18 851 25.13 25.2 77.4 18 -0.9 30.5
13:05 1022 30.18 851 25.13 25.1 77.2 18 -0.4 31.3
13:10 1022 30.18 851 25.13 25 76.9 19 0.1 32.2
13:15 1022 30.18 851 25.13 25.4 77.6 18 -0.7 30.8
13:20 1022 30.18 851 25.13 24.8 76.7 18 -1 30.2
13:25 1022 30.18 851 25.13 25.4 77.8 18 -0.1 31.8
13:30 1022 30.18 851 25.13 25.3 77.5 17 -1 30.3
13:35 1022 30.18 851 25.13 25.5 78 17 -1.2 29.9
13:40 1022 30.18 851 25.13 25.9 78.6 17 -1 30.3
13:45 1022 30.18 851 25.13 26.3 79.3 18 0.3 32.5
13:50 1022 30.18 851 25.13 26.4 79.5 16 -1.1 30
13:55 1022 30.18 851 25.13 25.7 78.2 18 -0.5 31.1
14:00 1022 30.18 851 25.13 26 78.7 16 -1.1 29.9
14:05 1022 30.18 851 25.13 26.2 79.1 17 -0.5 31.1
14:10 1021 30.15 851 25.13 25.8 78.4 17 -0.9 30.4
14:15 1021 30.15 851 25.13 26 78.8 17 -1 30.2
14:20 1021 30.15 851 25.13 26.1 78.9 16 -1.3 29.7
14:25 1021 30.15 851 25.13 25.8 78.4 15 -2.2 28.1
14:30 1021 30.15 850 25.1 25.6 78.1 15 -2.5 27.4
14:35 1021 30.15 850 25.1 25.4 77.7 16 -1.6 29.1
14:40 1021 30.15 850 25.1 26.4 79.5 17 -0.3 31.5
14:45 1021 30.15 850 25.1 27 80.5 14 -2.2 28.1
14:50 1021 30.15 850 25.1 26.9 80.5 15 -1.3 29.7
14:55 1021 30.15 850 25.1 26.9 80.4 15 -1.8 28.8
15:00 1021 30.15 850 25.1 27 80.6 13 -3.2 26.3
15:05 1021 30.15 850 25.1 27.1 80.7 14 -2.3 27.9
15:10 1021 30.15 850 25.1 27.3 81.1 14 -2.1 28.2
15:15 1021 30.15 850 25.1 26.7 80.1 14 -2.3 27.9
15:20 1021 30.15 850 25.1 26.2 79.2 15 -1.9 28.7
15:25 1021 30.15 850 25.1 26.5 79.8 15 -1.7 28.9
15:30 1021 30.15 850 25.1 26 78.8 17 -0.9 30.4
15:35 1021 30.15 850 25.1 25.7 78.2 17 -1.2 29.8
15:40 1021 30.15 850 25.1 26.5 79.6 16 -0.7 30.7
15:45 1021 30.15 850 25.1 26.1 79 17 -0.4 31.2
15:50 1021 30.15 850 25.1 26.3 79.3 16 -1.3 29.7
15:55 1021 30.15 850 25.1 25.8 78.4 18 -0.2 31.6
16:00 1020 30.12 850 25.1 25.9 78.6 17 -0.7 30.8
16:05 1020 30.12 850 25.1 26.3 79.3 17 -0.1 31.8
16:10 1020 30.12 850 25.1 26.5 79.6 17 -0.5 31
16:15 1020 30.12 850 25.1 26.3 79.4 16 -1.5 29.3
16:20 1020 30.12 850 25.1 26.8 80.2 15 -1.5 29.3
16:25 1020 30.12 850 25.1 25.8 78.4 17 -1 30.1
16:30 1020 30.12 850 25.1 25.9 78.7 16 -1.2 29.8
16:35 1020 30.12 849 25.07 25 77.1 17 -1.3 29.7
16:40 1020 30.12 849 25.07 25.1 77.3 16 -2.5 27.6
16:45 1020 30.12 849 25.07 25.4 77.8 16 -1.6 29.1
16:50 1020 30.12 849 25.07 26.2 79.2 15 -2.2 28
16:55 1020 30.12 849 25.07 25.7 78.3 15 -2.2 28
17:00 1020 30.12 849 25.07 26.1 79.1 14 -2.9 26.9
17:05 1020 30.12 849 25.07 25.5 77.9 14 -3.5 25.8
17:10 1020 30.12 849 25.07 25.9 78.7 14 -3.1 26.4
17:15 1020 30.12 849 25.07 26.2 79.1 14 -3.4 26
17:20 1020 30.12 849 25.07 26.3 79.3 15 -2.5 27.5
17:25 1020 30.12 849 25.07 26.3 79.4 14 -2.8 27
17:30 1020 30.12 849 25.07 27 80.6 13 -3.2 26.2
17:35 1020 30.12 849 25.07 26.3 79.4 14 -2.7 27.1
17:40 1020 30.12 849 25.07 26.1 79.1 14 -2.9 26.8
17:45 1020 30.12 849 25.07 26.5 79.8 13 -3.4 25.8
17:50 1020 30.12 849 25.07 26.9 80.4 13 -3.2 26.2
17:55 1020 30.12 849 25.07 27.1 80.7 13 -3.3 26
18:00 1020 30.12 849 25.07 26.6 79.8 14 -3.2 26.3
18:05 1020 30.12 849 25.07 26.3 79.3 14 -3.2 26.2
18:10 1020 30.12 849 25.07 26.8 80.2 14 -3.1 26.4
18:15 1020 30.12 849 25.07 26.9 80.4 13 -3.2 26.3
18:20 1020 30.12 849 25.07 26.3 79.4 14 -3.1 26.5
18:25 1020 30.12 849 25.07 27 80.5 13 -3.1 26.5
18:30 1019 30.09 849 25.07 27.3 81.1 14 -2 28.3
18:35 1019 30.09 849 25.07 27.4 81.3 14 -2.4 27.7
18:40 1019 30.09 849 25.07 27.4 81.3 14 -2.6 27.3
18:45 1019 30.09 849 25.07 27 80.6 14 -3 26.7
18:50 1019 30.09 848 25.04 26.7 80.1 14 -2.8 27
18:55 1019 30.09 848 25.04 26.2 79.2 14 -3.2 26.3
19:00 1019 30.09 848 25.04 26 78.7 14 -3.1 26.4
19:05 1019 30.09 848 25.04 26 78.9 15 -2.4 27.6
19:10 1019 30.09 848 25.04 25.7 78.2 16 -2.1 28.2
19:15 1019 30.09 848 25.04 25.2 77.4 16 -2.4 27.6
19:20 1019 30.09 848 25.04 25.4 77.7 18 -0.7 30.8
19:25 1019 30.09 848 25.04 25.3 77.5 18 -0.4 31.2
19:30 1019 30.09 848 25.04 24.7 76.5 20 0.6 33.1
19:35 1019 30.09 848 25.04 24.6 76.2 18 -0.8 30.5
19:40 1019 30.09 848 25.04 24.6 76.4 18 -1.1 30
19:45 1019 30.09 848 25.04 24.8 76.6 19 -0.5 31.1
19:50 1019 30.09 848 25.04 24.8 76.7 17 -1.7 29
19:55 1019 30.09 848 25.04 24.9 76.8 16 -2.6 27.2
20:00 1019 30.09 848 25.04 25 77 15 -2.8 27
20:05 1019 30.09 848 25.04 24.9 76.7 15 -3.3 26.1
20:10 1019 30.09 848 25.04 24.8 76.7 15 -2.9 26.8
20:15 1019 30.09 848 25.04 24.7 76.4 17 -2.1 28.2
20:20 1019 30.09 848 25.04 24.6 76.3 14 -4.6 23.7
20:25 1019 30.09 848 25.04 24.9 76.8 14 -3.8 25.1
20:30 1019 30.09 849 25.07 24.7 76.4 15 -3.2 26.2
20:35 1019 30.09 849 25.07 24.3 75.8 17 -2.2 28.1
20:40 1019 30.09 849 25.07 24 75.1 17 -2.7 27.2
20:45 1019 30.09 849 25.07 23.9 74.9 17 -2.1 28.3
20:50 1019 30.09 849 25.07 23.6 74.4 17 -2.8 26.9
20:55 1019 30.09 849 25.07 23.6 74.5 18 -2 28.4
21:00 1020 30.12 849 25.07 23.4 74.2 18 -2.3 27.9
21:05 1020 30.12 849 25.07 23.3 73.9 17 -2.7 27.1
21:10 1020 30.12 849 25.07 23.2 73.7 18 -2.3 27.8
21:15 1020 30.12 849 25.07 23 73.4 18 -2.4 27.7
21:20 1020 30.12 849 25.07 22.8 73 18 -2.3 27.8
21:25 1020 30.12 849 25.07 22.2 71.9 26 1.9 35.4
21:30 1020 30.12 849 25.07 20 67.9 29 1.7 35
21:35 1020 30.12 849 25.07 19 66.2 30 1 33.7
21:40 1020 30.12 849 25.07 18.7 65.6 29 0.4 32.8
21:45 1020 30.12 849 25.07 18.6 65.4 29 0.3 32.6
21:50 1020 30.12 849 25.07 18.4 65.1 30 0.5 32.8
21:55 1020 30.12 849 25.07 18.1 64.7 30 0.3 32.6
22:00 1020 30.12 849 25.07 18 64.4 28 -0.9 30.4
22:05 1020 30.12 849 25.07 17.9 64.2 29 -0.4 31.2
22:10 1020 30.12 849 25.07 17.8 64 29 -0.5 31.1
22:15 1020 30.12 849 25.07 17.5 63.6 29 -0.6 30.9
22:20 1020 30.12 849 25.07 17.4 63.3 31 0.1 32.2
22:25 1020 30.12 849 25.07 17.1 62.7 31 0 32.1
22:30 1020 30.12 849 25.07 16.6 61.9 32 -0.1 31.8
22:35 1020 30.12 849 25.07 16 60.8 33 -0.2 31.6
22:40 1020 30.12 849 25.07 15.8 60.4 33 -0.5 31.2
22:45 1020 30.12 849 25.07 15.7 60.2 33 -0.7 30.8
22:50 1020 30.12 849 25.07 15.5 60 33 -0.7 30.7
22:55 1020 30.12 849 25.07 15.6 60 32 -0.9 30.3
23:00 1020 30.12 849 25.07 15.6 60 33 -0.5 31.1
23:05 1020 30.12 849 25.07 15.3 59.6 32 -1 30.2
23:10 1020 30.12 849 25.07 15.1 59.2 33 -1 30.2
23:15 1020 30.12 849 25.07 15 59.1 33 -1.2 29.9
23:20 1020 30.12 849 25.07 15.1 59.1 33 -1.1 30.1
23:25 1020 30.12 849 25.07 15 59 33 -1.1 30
23:30 1020 30.12 849 25.07 14.9 58.9 33 -1.1 30.1
23:35 1020 30.12 849 25.07 14.8 58.7 33 -1.3 29.6
23:40 1020 30.12 849 25.07 14.8 58.7 33 -1.4 29.5
23:45 1020 30.12 849 25.07 15 59 32 -1.6 29.2
23:50 1020 30.12 849 25.07 15.1 59.3 32 -1.4 29.5
23:55 1020 30.12 849 25.07 15 59.1 32 -1.5 29.3
24:00 1020 30.12 849 25.07 14.9 58.8 32 -1.4 29.4